Time;durP1;ratioP1;P1;durP2;ratioP2;P2;SDS_P1;SDS_P2;PMS_P1;PMS_P2;Temp;Humidity;BMP_temperature;BMP_pressure;BME280_temperature;BME280_humidity;BME280_pressure;Samples;Min_cycle;Max_cycle;Signal;HPM_P1;HPM_P2
2023/06/24 00:00:03;;;;;;;6.28;5.50;;;17.40;99.90;;;;;;5018627;28;20063;-74
2023/06/24 00:02:28;;;;;;;6.05;5.20;;;17.40;99.90;;;;;;5026485;28;20512;-74
2023/06/24 00:04:54;;;;;;;7.57;5.50;;;17.40;99.90;;;;;;5014517;28;20033;-74
2023/06/24 00:07:22;;;;;;;6.97;6.13;;;17.40;99.90;;;;;;5018958;28;20120;-73
2023/06/24 00:09:47;;;;;;;6.75;5.50;;;17.40;99.90;;;;;;5028237;28;20091;-74
2023/06/24 00:12:18;;;;;;;6.28;5.40;;;17.20;99.90;;;;;;5029080;28;20045;-74
2023/06/24 00:14:45;;;;;;;7.03;5.30;;;17.10;99.90;;;;;;5026446;28;20400;-73
2023/06/24 00:17:11;;;;;;;6.85;5.90;;;17.10;99.90;;;;;;5023366;28;20087;-73
2023/06/24 00:19:37;;;;;;;5.30;4.80;;;17.20;99.90;;;;;;5028681;28;20497;-73
2023/06/24 00:22:03;;;;;;;6.60;5.95;;;17.10;99.90;;;;;;5020973;28;20033;-74
2023/06/24 00:24:29;;;;;;;7.28;5.70;;;17.10;99.90;;;;;;5044544;28;20041;-73
2023/06/24 00:26:55;;;;;;;7.13;6.43;;;17.10;99.90;;;;;;5027363;28;20145;-73
2023/06/24 00:29:21;;;;;;;6.10;5.47;;;17.10;99.90;;;;;;5028065;28;20123;-73
2023/06/24 00:31:47;;;;;;;7.15;6.13;;;17.10;99.90;;;;;;5027969;28;20128;-74
2023/06/24 00:34:13;;;;;;;6.15;5.55;;;17.10;99.90;;;;;;5022871;28;20041;-73
2023/06/24 00:36:38;;;;;;;6.00;5.15;;;17.00;99.90;;;;;;5026026;28;20087;-73
2023/06/24 00:39:09;;;;;;;6.93;5.40;;;16.90;99.90;;;;;;5028867;28;20048;-74
2023/06/24 00:41:35;;;;;;;7.10;5.70;;;16.90;99.90;;;;;;5027168;28;20042;-74
2023/06/24 00:44:01;;;;;;;6.47;5.70;;;16.90;99.90;;;;;;5024644;28;20049;-74
2023/06/24 00:46:28;;;;;;;6.95;6.10;;;17.00;99.90;;;;;;5028602;28;20042;-73
2023/06/24 00:48:55;;;;;;;7.38;6.45;;;17.00;99.90;;;;;;5030791;28;20186;-74
2023/06/24 00:51:26;;;;;;;7.85;6.75;;;16.90;99.90;;;;;;5028209;28;20038;-73
2023/06/24 00:53:53;;;;;;;7.18;6.47;;;17.00;99.90;;;;;;5027888;28;20045;-73
2023/06/24 00:56:21;;;;;;;8.73;6.53;;;16.90;99.90;;;;;;5029104;28;20044;-74
2023/06/24 00:58:47;;;;;;;6.97;6.28;;;16.90;99.90;;;;;;5027652;28;20382;-74
2023/06/24 01:01:14;;;;;;;6.97;6.05;;;16.90;99.90;;;;;;5031677;28;20099;-73
2023/06/24 01:03:40;;;;;;;7.72;6.68;;;16.80;99.90;;;;;;5049524;28;20042;-73
2023/06/24 01:06:06;;;;;;;8.27;6.55;;;16.80;99.90;;;;;;5033587;28;20033;-73
2023/06/24 01:08:32;;;;;;;8.52;7.20;;;16.70;99.90;;;;;;5031631;28;20077;-73
2023/06/24 01:10:57;;;;;;;8.30;7.20;;;16.70;99.90;;;;;;5048424;28;20461;-74
2023/06/24 01:13:23;;;;;;;7.65;6.85;;;16.70;99.90;;;;;;5032175;28;20061;-74
2023/06/24 01:15:49;;;;;;;7.93;7.00;;;16.70;99.90;;;;;;5032124;28;20528;-74
2023/06/24 01:18:30;;;;;;;8.85;7.65;;;16.60;99.90;;;;;;5032676;28;20575;-73
2023/06/24 01:21:13;;;;;;;9.38;7.80;;;16.60;99.90;;;;;;5031460;28;20049;-74
2023/06/24 01:23:53;;;;;;;8.15;7.30;;;16.60;99.90;;;;;;5032142;28;20072;-73
2023/06/24 01:26:50;;;;;;;8.57;7.57;;;16.60;99.90;;;;;;5030867;28;20038;-73
2023/06/24 01:29:25;;;;;;;9.10;7.32;;;16.60;99.90;;;;;;5031924;28;20042;-73
2023/06/24 01:32:11;;;;;;;8.50;7.53;;;16.50;99.90;;;;;;5031665;28;20041;-74
2023/06/24 01:34:44;;;;;;;9.80;8.60;;;16.50;99.90;;;;;;5031871;28;20037;-73
2023/06/24 01:37:10;;;;;;;11.85;8.45;;;16.50;99.90;;;;;;5032022;28;20048;-73
2023/06/24 01:39:44;;;;;;;9.82;8.10;;;16.40;99.90;;;;;;5033952;28;20049;-74
2023/06/24 01:42:14;;;;;;;10.95;9.07;;;16.40;99.90;;;;;;5047624;28;20049;-73
2023/06/24 01:44:43;;;;;;;9.32;8.02;;;16.30;99.90;;;;;;5030347;28;20411;-73
2023/06/24 01:47:10;;;;;;;9.48;8.48;;;16.40;99.90;;;;;;5031692;28;20042;-73
2023/06/24 01:49:40;;;;;;;10.18;8.52;;;16.40;99.90;;;;;;5031570;28;20096;-74
2023/06/24 01:52:08;;;;;;;9.45;8.45;;;16.30;99.90;;;;;;5031511;28;20033;-74
2023/06/24 01:54:35;;;;;;;11.15;9.07;;;16.40;99.90;;;;;;5031182;28;20049;-73
2023/06/24 01:57:03;;;;;;;12.93;9.13;;;16.30;99.90;;;;;;5022976;28;20041;-73
2023/06/24 01:59:29;;;;;;;10.73;9.25;;;16.40;99.90;;;;;;5031694;28;20041;-74
2023/06/24 02:01:57;;;;;;;10.70;9.60;;;16.40;99.90;;;;;;5030518;28;20131;-73
2023/06/24 02:04:24;;;;;;;11.57;9.27;;;16.40;99.90;;;;;;5031326;28;20496;-74
2023/06/24 02:06:51;;;;;;;11.52;9.07;;;16.40;99.90;;;;;;5030611;28;20037;-73
2023/06/24 02:09:18;;;;;;;10.45;8.98;;;16.30;99.90;;;;;;5031265;28;20049;-73
2023/06/24 02:11:44;;;;;;;11.45;9.13;;;16.30;99.90;;;;;;5030291;28;20424;-73
2023/06/24 02:14:12;;;;;;;11.05;9.35;;;16.30;99.90;;;;;;5032205;28;20053;-73
2023/06/24 02:16:42;;;;;;;10.55;9.35;;;16.20;99.90;;;;;;5030528;28;20041;-73
2023/06/24 02:19:09;;;;;;;11.93;9.52;;;16.20;99.90;;;;;;5030794;28;20033;-73
2023/06/24 02:21:36;;;;;;;12.50;9.27;;;16.10;99.90;;;;;;5031074;28;20063;-73
2023/06/24 02:24:02;;;;;;;11.93;9.27;;;16.10;99.90;;;;;;5024397;28;20076;-73
2023/06/24 02:26:28;;;;;;;11.75;9.75;;;16.10;99.90;;;;;;5030553;28;20064;-73
2023/06/24 02:28:55;;;;;;;10.63;9.35;;;16.10;99.90;;;;;;5046636;28;20057;-74
2023/06/24 02:31:21;;;;;;;10.93;9.20;;;16.00;99.90;;;;;;5030472;28;20437;-73
2023/06/24 02:33:46;;;;;;;12.25;10.50;;;16.00;99.90;;;;;;5031551;28;20041;-74
2023/06/24 02:36:12;;;;;;;11.95;9.57;;;16.00;99.90;;;;;;5032283;28;20064;-73
2023/06/24 02:38:38;;;;;;;12.60;10.05;;;16.00;99.90;;;;;;5029366;28;20112;-73
2023/06/24 02:41:04;;;;;;;11.30;9.27;;;16.00;99.90;;;;;;5030336;28;20041;-73
2023/06/24 02:43:30;;;;;;;12.73;9.98;;;16.00;99.90;;;;;;5029662;28;20037;-73
2023/06/24 02:45:57;;;;;;;12.88;10.18;;;16.00;99.90;;;;;;5030800;28;20053;-74
2023/06/24 02:48:23;;;;;;;13.65;10.55;;;16.00;99.90;;;;;;5029877;28;20033;-73
2023/06/24 02:50:49;;;;;;;14.23;10.23;;;16.00;99.90;;;;;;5031630;28;20543;-74
2023/06/24 02:53:16;;;;;;;12.65;9.68;;;15.90;99.90;;;;;;5030665;28;20048;-73
2023/06/24 02:55:42;;;;;;;11.02;9.57;;;15.90;99.90;;;;;;5028562;28;20045;-73
2023/06/24 02:58:09;;;;;;;12.80;10.20;;;15.90;99.90;;;;;;5029051;28;20033;-73
2023/06/24 03:00:35;;;;;;;11.90;10.00;;;15.90;99.90;;;;;;5029828;28;20164;-74
2023/06/24 03:03:03;;;;;;;12.43;9.88;;;15.90;99.90;;;;;;5042733;28;20243;-73
2023/06/24 03:05:31;;;;;;;11.85;9.35;;;15.90;99.90;;;;;;5030234;28;20488;-73
2023/06/24 03:07:57;;;;;;;12.43;9.55;;;15.90;99.90;;;;;;5029652;28;20041;-73
2023/06/24 03:10:24;;;;;;;11.40;9.63;;;15.80;99.90;;;;;;5031050;28;20042;-74
2023/06/24 03:12:50;;;;;;;13.23;10.27;;;15.90;99.90;;;;;;5029212;28;20037;-73
2023/06/24 03:15:15;;;;;;;11.38;9.38;;;15.90;99.90;;;;;;5031335;28;20037;-74
2023/06/24 03:17:41;;;;;;;10.93;9.45;;;15.90;99.90;;;;;;5029848;28;20128;-74
2023/06/24 03:20:08;;;;;;;12.10;9.60;;;15.90;99.90;;;;;;5029318;28;20112;-74
2023/06/24 03:22:33;;;;;;;12.25;9.43;;;15.90;99.90;;;;;;5029420;28;20073;-74
2023/06/24 03:24:59;;;;;;;12.30;10.07;;;15.90;99.90;;;;;;5029902;28;20523;-74
2023/06/24 03:27:24;;;;;;;11.65;9.07;;;15.90;99.90;;;;;;5045434;28;20076;-74
2023/06/24 03:29:50;;;;;;;11.25;9.63;;;15.90;99.90;;;;;;5031187;28;20099;-74
2023/06/24 03:32:15;;;;;;;10.75;9.32;;;15.80;99.90;;;;;;5029676;28;20037;-74
2023/06/24 03:34:41;;;;;;;12.70;9.80;;;15.80;99.90;;;;;;5029087;28;20512;-74
2023/06/24 03:37:07;;;;;;;14.40;10.15;;;15.80;99.90;;;;;;5029216;28;20037;-74
2023/06/24 03:39:32;;;;;;;10.63;8.98;;;15.80;99.90;;;;;;5028945;28;20132;-73
2023/06/24 03:41:58;;;;;;;14.13;9.52;;;15.80;99.90;;;;;;5029728;28;20045;-73
2023/06/24 03:44:23;;;;;;;10.68;9.02;;;15.80;99.90;;;;;;5028051;28;20037;-73
2023/06/24 03:46:49;;;;;;;10.98;9.80;;;15.80;99.90;;;;;;5030239;28;20681;-73
2023/06/24 03:49:14;;;;;;;11.88;9.85;;;15.80;99.90;;;;;;5030201;28;20037;-73
2023/06/24 03:51:40;;;;;;;11.02;8.45;;;15.80;99.90;;;;;;5029893;28;20041;-73
2023/06/24 03:54:05;;;;;;;12.88;9.05;;;15.80;99.90;;;;;;5017999;28;20455;-73
2023/06/24 03:56:31;;;;;;;11.80;9.45;;;15.90;99.90;;;;;;5028629;28;20045;-73
2023/06/24 03:58:56;;;;;;;11.98;9.50;;;15.90;99.90;;;;;;5027608;28;20044;-73
2023/06/24 04:01:22;;;;;;;11.75;9.25;;;15.90;99.90;;;;;;5030211;28;20079;-73
2023/06/24 04:03:48;;;;;;;14.45;9.57;;;15.90;99.90;;;;;;5025397;28;20090;-73
2023/06/24 04:06:13;;;;;;;12.82;9.68;;;16.00;99.90;;;;;;5034530;28;20038;-74
2023/06/24 04:08:39;;;;;;;10.80;9.13;;;15.90;99.90;;;;;;5026607;28;20040;-74
2023/06/24 04:11:06;;;;;;;12.25;9.65;;;16.00;99.90;;;;;;5028944;28;20037;-73
2023/06/24 04:13:32;;;;;;;11.23;9.32;;;16.00;99.90;;;;;;5027055;28;20224;-73
2023/06/24 04:15:57;;;;;;;11.55;9.65;;;16.10;99.90;;;;;;5028351;28;20039;-73
2023/06/24 04:18:23;;;;;;;10.25;8.20;;;16.10;99.90;;;;;;5045638;28;20041;-73
2023/06/24 04:20:48;;;;;;;11.43;9.52;;;16.10;99.90;;;;;;5045693;28;20497;-74
2023/06/24 04:23:15;;;;;;;11.82;9.25;;;16.20;99.90;;;;;;5027742;28;20039;-73
2023/06/24 04:25:41;;;;;;;12.52;8.77;;;16.20;99.90;;;;;;5045872;28;20075;-74
2023/06/24 04:28:06;;;;;;;11.32;9.57;;;16.30;99.90;;;;;;5028022;28;20034;-73
2023/06/24 04:30:35;;;;;;;11.18;8.77;;;16.30;99.90;;;;;;5028288;28;20099;-73
2023/06/24 04:33:01;;;;;;;10.02;8.68;;;16.40;99.90;;;;;;5044220;28;20512;-73
2023/06/24 04:35:27;;;;;;;10.50;8.48;;;16.50;99.90;;;;;;5022095;28;20081;-73
2023/06/24 04:37:52;;;;;;;10.25;8.75;;;16.60;99.90;;;;;;5028244;28;20084;-74
2023/06/24 04:40:19;;;;;;;12.15;9.68;;;16.70;99.90;;;;;;5030378;28;20076;-74
2023/06/24 04:42:45;;;;;;;11.68;8.50;;;16.80;99.90;;;;;;5027640;28;20030;-73
2023/06/24 04:45:10;;;;;;;9.88;8.35;;;16.90;99.90;;;;;;5027483;28;20136;-73
2023/06/24 04:47:36;;;;;;;12.90;9.40;;;16.90;99.90;;;;;;5025291;28;20041;-73
2023/06/24 04:50:02;;;;;;;9.15;8.10;;;17.00;99.90;;;;;;5028706;28;20037;-74
2023/06/24 04:52:28;;;;;;;11.77;8.90;;;17.00;99.90;;;;;;5028611;28;20041;-74
2023/06/24 04:54:53;;;;;;;11.50;8.13;;;17.00;99.90;;;;;;5046300;28;20059;-73
2023/06/24 04:57:29;;;;;;;11.98;9.15;;;17.00;99.90;;;;;;5028765;28;20039;-74
2023/06/24 04:59:56;;;;;;;11.73;7.97;;;17.10;99.90;;;;;;5027897;28;20127;-74
2023/06/24 05:02:21;;;;;;;10.40;8.15;;;17.10;99.90;;;;;;5029418;28;20038;-74
2023/06/24 05:04:47;;;;;;;12.05;9.52;;;17.20;99.90;;;;;;5030648;28;20033;-74
2023/06/24 05:07:13;;;;;;;11.60;8.70;;;17.20;99.90;;;;;;5045163;28;20544;-74
2023/06/24 05:09:38;;;;;;;10.63;9.10;;;17.20;99.90;;;;;;5026106;28;20045;-73
2023/06/24 05:12:05;;;;;;;12.35;8.27;;;17.20;99.90;;;;;;5022972;28;20088;-73
2023/06/24 05:14:31;;;;;;;10.88;8.75;;;17.30;99.90;;;;;;5023694;28;20136;-73
2023/06/24 05:16:56;;;;;;;11.75;8.93;;;17.40;99.90;;;;;;5024401;28;20124;-74
2023/06/24 05:19:22;;;;;;;12.30;9.60;;;17.40;99.90;;;;;;5039958;28;20041;-73
2023/06/24 05:21:47;;;;;;;12.60;10.02;;;17.50;99.90;;;;;;5024240;28;20493;-74
2023/06/24 05:24:13;;;;;;;11.38;8.98;;;17.60;99.90;;;;;;5025420;28;20026;-73
2023/06/24 05:26:38;;;;;;;12.82;10.23;;;17.80;99.90;;;;;;5014093;28;20041;-74
2023/06/24 05:29:04;;;;;;;10.57;9.48;;;17.80;99.90;;;;;;5028530;28;20037;-74
2023/06/24 05:31:29;;;;;;;12.80;10.23;;;18.00;99.90;;;;;;5027316;28;20112;-74
2023/06/24 05:33:55;;;;;;;11.15;9.88;;;18.10;99.90;;;;;;5029152;28;20592;-74
2023/06/24 05:36:20;;;;;;;13.73;10.40;;;18.20;99.90;;;;;;5026831;28;20113;-74
2023/06/24 05:38:48;;;;;;;13.52;9.80;;;18.30;99.90;;;;;;5026531;28;20538;-74
2023/06/24 05:41:13;;;;;;;14.52;11.23;;;18.30;99.90;;;;;;5026496;28;20073;-74
2023/06/24 05:43:39;;;;;;;12.27;10.35;;;18.50;99.90;;;;;;5027977;28;20531;-74
2023/06/24 05:46:04;;;;;;;11.27;9.40;;;18.60;99.90;;;;;;5013194;28;20033;-74
2023/06/24 05:48:30;;;;;;;12.43;9.95;;;18.70;99.90;;;;;;5031083;28;20095;-74
2023/06/24 05:50:55;;;;;;;13.98;9.93;;;18.70;99.90;;;;;;5031651;28;20107;-74
2023/06/24 05:53:21;;;;;;;13.10;9.23;;;18.90;99.90;;;;;;5031997;28;20703;-74
2023/06/24 05:55:47;;;;;;;11.63;9.60;;;19.10;99.90;;;;;;5030541;28;20444;-74
2023/06/24 05:58:12;;;;;;;12.55;9.30;;;19.20;99.90;;;;;;5028847;28;20377;-75
2023/06/24 06:00:38;;;;;;;12.05;9.98;;;19.30;99.90;;;;;;5030110;28;20050;-75
2023/06/24 06:03:03;;;;;;;9.85;8.45;;;19.40;99.90;;;;;;5026255;28;20030;-74
2023/06/24 06:05:29;;;;;;;12.43;9.43;;;19.50;99.90;;;;;;5028716;28;20098;-75
2023/06/24 06:07:54;;;;;;;11.25;8.40;;;19.60;99.90;;;;;;5047585;28;20046;-75
2023/06/24 06:10:21;;;;;;;11.23;8.75;;;19.70;99.90;;;;;;5031514;28;20041;-75
2023/06/24 06:12:46;;;;;;;12.25;9.40;;;19.90;99.90;;;;;;5030984;28;20044;-75
2023/06/24 06:15:12;;;;;;;9.45;7.90;;;20.00;99.90;;;;;;5026129;28;20037;-75
2023/06/24 06:17:38;;;;;;;9.10;8.20;;;20.10;99.90;;;;;;5030272;28;20109;-75
2023/06/24 06:20:04;;;;;;;11.07;8.63;;;20.20;99.90;;;;;;5029223;28;20033;-76
2023/06/24 06:22:29;;;;;;;11.00;8.50;;;20.30;99.90;;;;;;5028272;28;20386;-76
2023/06/24 06:24:55;;;;;;;10.02;7.85;;;20.50;99.90;;;;;;5025649;28;20052;-75
2023/06/24 06:27:21;;;;;;;9.52;7.68;;;20.60;99.90;;;;;;5023696;28;20037;-75
2023/06/24 06:29:46;;;;;;;10.88;7.63;;;20.80;99.90;;;;;;5031096;28;20038;-76
2023/06/24 06:32:12;;;;;;;10.52;7.30;;;20.90;99.90;;;;;;5025741;28;20033;-75
2023/06/24 06:34:37;;;;;;;9.95;8.02;;;21.10;99.90;;;;;;5044633;28;20044;-76
2023/06/24 06:37:03;;;;;;;11.18;7.53;;;21.00;99.90;;;;;;5031897;28;20392;-76
2023/06/24 06:39:28;;;;;;;9.73;7.88;;;21.10;99.90;;;;;;5028593;28;20099;-76
2023/06/24 06:41:54;;;;;;;10.00;7.50;;;21.20;99.90;;;;;;5031402;28;20117;-76
2023/06/24 06:44:19;;;;;;;9.20;8.05;;;21.20;99.90;;;;;;5030930;28;20087;-76
2023/06/24 06:46:45;;;;;;;9.70;7.72;;;21.30;99.90;;;;;;5029865;28;20030;-75
2023/06/24 06:49:10;;;;;;;9.80;7.63;;;21.30;99.90;;;;;;5031375;28;20527;-76
2023/06/24 06:51:36;;;;;;;10.40;8.40;;;21.30;99.90;;;;;;5048270;28;20049;-76
2023/06/24 06:54:02;;;;;;;17.58;8.20;;;21.50;99.90;;;;;;5020629;28;20511;-76
2023/06/24 06:56:28;;;;;;;9.75;7.32;;;21.60;99.90;;;;;;5024727;28;20033;-76
2023/06/24 06:58:53;;;;;;;8.60;7.50;;;21.70;99.90;;;;;;5019752;28;20044;-76
2023/06/24 07:01:19;;;;;;;10.93;7.63;;;21.80;99.90;;;;;;5023407;28;20116;-76
2023/06/24 07:03:45;;;;;;;9.65;6.57;;;21.80;99.90;;;;;;5010676;28;20045;-75
2023/06/24 07:06:10;;;;;;;7.40;6.57;;;21.90;99.90;;;;;;5026750;28;20522;-76
2023/06/24 07:08:36;;;;;;;9.52;7.03;;;22.00;99.90;;;;;;5031222;28;20143;-77
2023/06/24 07:11:02;;;;;;;10.35;6.32;;;22.00;99.90;;;;;;5031071;28;20060;-76
2023/06/24 07:13:28;;;;;;;7.32;6.57;;;22.00;99.90;;;;;;5031312;28;20512;-75
2023/06/24 07:15:53;;;;;;;10.57;6.50;;;22.10;99.90;;;;;;5031404;28;20120;-75
2023/06/24 07:18:19;;;;;;;7.80;6.10;;;22.00;99.90;;;;;;5047370;28;20541;-76
2023/06/24 07:20:44;;;;;;;7.65;6.47;;;22.10;99.90;;;;;;5031045;28;20428;-75
2023/06/24 07:23:10;;;;;;;9.52;6.20;;;22.10;99.90;;;;;;5030844;28;20102;-75
2023/06/24 07:25:36;;;;;;;7.03;6.22;;;22.10;99.90;;;;;;5047917;28;20041;-75
2023/06/24 07:28:02;;;;;;;7.68;6.63;;;22.20;99.90;;;;;;5047417;28;20128;-75
2023/06/24 07:30:27;;;;;;;8.32;6.28;;;22.20;99.90;;;;;;5030785;28;20073;-75
2023/06/24 07:32:53;;;;;;;9.10;6.03;;;22.30;99.90;;;;;;5045790;28;20045;-75
2023/06/24 07:35:19;;;;;;;7.05;5.78;;;22.40;99.90;;;;;;5029510;28;20041;-75
2023/06/24 07:37:45;;;;;;;10.00;6.47;;;22.50;99.90;;;;;;5047181;28;20037;-76
2023/06/24 07:40:10;;;;;;;10.32;6.35;;;22.70;99.90;;;;;;5030488;28;20029;-76
2023/06/24 07:42:36;;;;;;;7.45;6.38;;;22.80;99.90;;;;;;5030739;28;20033;-76
2023/06/24 07:45:02;;;;;;;8.30;5.93;;;22.90;99.90;;;;;;5030485;28;20076;-76
2023/06/24 07:47:27;;;;;;;8.98;5.70;;;23.10;99.90;;;;;;5030685;28;20045;-75
2023/06/24 07:49:53;;;;;;;8.32;5.50;;;23.20;99.90;;;;;;5030662;28;20066;-76
2023/06/24 07:52:18;;;;;;;6.90;4.95;;;23.30;99.90;;;;;;5030193;28;20087;-76
2023/06/24 07:54:44;;;;;;;6.80;5.15;;;23.40;99.90;;;;;;5014089;28;20493;-75
2023/06/24 07:57:09;;;;;;;7.93;4.75;;;23.50;99.90;;;;;;5004012;28;20041;-75
2023/06/24 07:59:35;;;;;;;7.05;4.82;;;23.60;99.90;;;;;;5018059;28;20074;-75
2023/06/24 08:02:01;;;;;;;6.13;4.57;;;23.70;99.90;;;;;;5019870;28;20034;-76
2023/06/24 08:04:26;;;;;;;7.00;5.00;;;23.80;99.90;;;;;;5028839;28;20045;-77
2023/06/24 08:06:52;;;;;;;6.40;4.57;;;23.90;99.90;;;;;;5012070;28;20493;-76
2023/06/24 08:09:17;;;;;;;8.80;5.15;;;24.10;99.90;;;;;;5021667;28;20421;-76
2023/06/24 08:11:43;;;;;;;6.28;4.70;;;24.30;99.90;;;;;;5013281;28;20076;-75
2023/06/24 08:14:09;;;;;;;6.45;4.97;;;24.40;99.90;;;;;;5023146;28;20525;-76
2023/06/24 08:16:35;;;;;;;5.72;4.30;;;24.50;99.90;;;;;;5026996;28;20053;-76
2023/06/24 08:19:00;;;;;;;4.95;4.40;;;24.50;99.90;;;;;;5038500;28;20076;-76
2023/06/24 08:21:26;;;;;;;7.10;4.75;;;24.50;99.90;;;;;;5029936;28;20099;-75
2023/06/24 08:23:52;;;;;;;8.15;4.95;;;24.60;99.90;;;;;;5029853;28;20416;-76
2023/06/24 08:26:19;;;;;;;7.15;5.00;;;24.70;99.90;;;;;;5030105;28;20033;-76
2023/06/24 08:28:46;;;;;;;7.18;4.60;;;24.70;99.90;;;;;;5030094;28;20094;-76
2023/06/24 08:31:11;;;;;;;5.65;4.35;;;24.60;99.90;;;;;;5029713;28;20037;-75
2023/06/24 08:33:37;;;;;;;6.38;4.88;;;24.60;99.90;;;;;;5046123;28;20049;-75
2023/06/24 08:36:03;;;;;;;7.35;4.05;;;24.70;99.90;;;;;;5046961;28;20416;-75
2023/06/24 08:38:28;;;;;;;7.75;4.82;;;24.70;99.90;;;;;;5046476;28;20049;-75
2023/06/24 08:40:54;;;;;;;6.40;4.45;;;24.80;99.90;;;;;;5029728;28;20493;-75
2023/06/24 08:43:19;;;;;;;6.20;4.30;;;24.80;99.90;;;;;;5028465;28;20048;-76
2023/06/24 08:45:45;;;;;;;5.68;4.15;;;24.80;99.90;;;;;;5046437;28;20033;-75
2023/06/24 08:48:13;;;;;;;8.00;4.38;;;24.90;99.90;;;;;;5028769;28;20116;-75
2023/06/24 08:50:44;;;;;;;5.05;3.92;;;24.90;99.90;;;;;;5026942;28;20033;-75
2023/06/24 08:53:11;;;;;;;6.85;4.30;;;25.00;99.90;;;;;;5026370;28;20033;-75
2023/06/24 08:55:40;;;;;;;5.47;3.47;;;25.00;99.90;;;;;;5021977;28;20128;-75
2023/06/24 08:58:06;;;;;;;8.75;3.88;;;25.10;99.90;;;;;;5016218;28;20443;-76
2023/06/24 09:00:32;;;;;;;11.05;4.28;;;25.20;99.90;;;;;;5021088;28;20037;-75
2023/06/24 09:02:58;;;;;;;6.82;4.18;;;25.20;99.90;;;;;;5026430;28;20095;-75
2023/06/24 09:05:24;;;;;;;6.03;4.00;;;25.30;99.90;;;;;;5013489;28;20045;-75
2023/06/24 09:07:50;;;;;;;6.15;4.45;;;25.50;99.90;;;;;;5019742;28;20029;-75
2023/06/24 09:10:41;;;;;;;6.40;4.53;;;25.60;99.90;;;;;;5032353;28;20057;-75
2023/06/24 09:13:07;;;;;;;5.75;4.40;;;25.50;99.90;;;;;;5026378;28;20060;-75
2023/06/24 09:15:34;;;;;;;8.60;4.30;;;25.40;99.90;;;;;;5020164;28;20513;-75
2023/06/24 09:18:00;;;;;;;5.95;4.20;;;25.40;99.90;;;;;;5044237;28;20033;-75
2023/06/24 09:20:27;;;;;;;6.30;4.03;;;25.40;99.90;;;;;;5023823;28;20041;-75
2023/06/24 09:22:58;;;;;;;6.55;4.07;;;25.40;99.90;;;;;;5021693;28;20237;-75
2023/06/24 09:25:24;;;;;;;9.52;4.22;;;25.40;99.90;;;;;;5029799;28;20092;-75
2023/06/24 09:27:52;;;;;;;6.13;4.50;;;25.40;99.90;;;;;;5029852;28;20073;-75
2023/06/24 09:30:20;;;;;;;7.53;4.78;;;25.50;99.90;;;;;;5020270;28;20034;-75
2023/06/24 09:32:46;;;;;;;6.13;4.05;;;25.60;99.90;;;;;;5025557;28;20076;-75
2023/06/24 09:35:12;;;;;;;7.88;4.78;;;25.60;99.90;;;;;;5027847;28;20033;-75
2023/06/24 09:37:38;;;;;;;6.93;5.05;;;25.70;99.90;;;;;;5025091;28;20037;-75
2023/06/24 09:40:05;;;;;;;6.38;4.57;;;25.80;99.90;;;;;;5024841;28;20061;-75
2023/06/24 09:42:31;;;;;;;7.05;4.90;;;25.90;99.90;;;;;;5032605;28;20037;-75
2023/06/24 09:44:57;;;;;;;7.88;4.22;;;25.90;99.90;;;;;;5033266;28;20146;-74
2023/06/24 09:47:27;;;;;;;5.28;4.32;;;26.00;99.90;;;;;;5032885;28;20033;-74
2023/06/24 09:49:53;;;;;;;6.03;4.25;;;26.00;99.90;;;;;;5032943;28;20041;-75
2023/06/24 09:52:20;;;;;;;5.57;4.25;;;26.10;99.90;;;;;;5032554;28;20045;-74
2023/06/24 09:54:50;;;;;;;5.03;4.20;;;26.30;99.90;;;;;;5032585;28;20054;-74
2023/06/24 09:57:20;;;;;;;8.90;3.60;;;26.30;99.90;;;;;;5033086;28;20128;-74
2023/06/24 09:59:46;;;;;;;4.72;3.70;;;26.40;99.90;;;;;;5048453;28;20528;-74
2023/06/24 10:02:15;;;;;;;5.78;3.75;;;26.40;99.90;;;;;;5049189;28;20036;-73
2023/06/24 10:04:41;;;;;;;5.30;3.70;;;26.50;99.90;;;;;;5032878;28;20037;-74
2023/06/24 10:07:07;;;;;;;11.18;3.63;;;26.60;99.90;;;;;;5033305;28;20117;-74
2023/06/24 10:09:32;;;;;;;6.18;4.00;;;26.70;99.90;;;;;;5032245;28;20045;-74
2023/06/24 10:11:58;;;;;;;4.55;3.40;;;26.70;99.90;;;;;;5047827;28;20084;-75
2023/06/24 10:14:24;;;;;;;4.90;3.28;;;26.70;99.90;;;;;;5049170;28;20043;-74
2023/06/24 10:16:50;;;;;;;5.38;3.60;;;26.80;99.90;;;;;;5033733;28;20128;-74
2023/06/24 10:19:21;;;;;;;6.45;3.55;;;26.90;99.90;;;;;;5048807;28;20060;-75
2023/06/24 10:21:52;;;;;;;5.85;3.80;;;27.00;99.90;;;;;;5032015;28;20048;-74
2023/06/24 10:24:39;;;;;;;4.80;3.53;;;27.10;99.90;;;;;;5033568;28;20045;-73
2023/06/24 10:27:07;;;;;;;3.35;2.97;;;27.20;99.90;;;;;;5032922;28;20037;-73
2023/06/24 10:29:39;;;;;;;5.97;3.30;;;27.30;99.90;;;;;;5032243;28;20068;-74
2023/06/24 10:32:09;;;;;;;5.90;3.92;;;27.10;99.90;;;;;;5032892;28;20485;-73
2023/06/24 10:34:42;;;;;;;6.15;3.13;;;27.10;99.90;;;;;;5031997;28;20140;-73
2023/06/24 10:37:08;;;;;;;4.47;3.33;;;27.20;99.90;;;;;;5030552;28;20041;-74
2023/06/24 10:39:44;;;;;;;7.00;3.38;;;27.40;99.90;;;;;;5048060;28;20049;-74
2023/06/24 10:42:29;;;;;;;4.03;3.55;;;27.40;99.90;;;;;;5033030;28;20044;-74
2023/06/24 10:45:13;;;;;;;4.80;3.70;;;27.20;99.90;;;;;;5031873;28;20045;-73
2023/06/24 10:47:48;;;;;;;5.15;3.72;;;27.10;99.90;;;;;;5033309;28;20130;-74
2023/06/24 10:50:15;;;;;;;4.60;3.63;;;27.00;99.90;;;;;;5031667;28;20037;-73
2023/06/24 10:52:55;;;;;;;4.43;3.20;;;26.60;99.90;;;;;;5031511;28;20046;-74
2023/06/24 10:55:24;;;;;;;7.40;3.28;;;26.80;99.90;;;;;;5031793;28;20053;-74
2023/06/24 10:57:49;;;;;;;4.68;3.50;;;27.10;99.90;;;;;;5031783;28;20417;-74
2023/06/24 11:00:16;;;;;;;3.85;3.28;;;27.40;99.90;;;;;;5032317;28;20049;-74
2023/06/24 11:02:41;;;;;;;5.55;3.63;;;27.70;99.90;;;;;;5029545;28;20063;-74
2023/06/24 11:05:08;;;;;;;5.35;3.20;;;28.00;99.90;;;;;;5031319;28;20592;-74
2023/06/24 11:07:36;;;;;;;4.30;3.28;;;28.20;99.90;;;;;;5032681;28;20039;-74
2023/06/24 11:10:11;;;;;;;4.30;3.20;;;28.50;99.90;;;;;;5032887;28;20098;-74
2023/06/24 11:12:38;;;;;;;5.60;3.58;;;28.60;99.30;;;;;;5031181;28;20120;-74
2023/06/24 11:15:05;;;;;;;6.03;3.90;;;28.20;99.00;;;;;;5032750;28;20038;-74
2023/06/24 11:17:33;;;;;;;5.07;3.30;;;28.00;99.50;;;;;;5031297;28;20076;-74
2023/06/24 11:19:59;;;;;;;4.63;3.72;;;27.80;99.90;;;;;;5031282;28;20045;-73
2023/06/24 11:22:25;;;;;;;5.22;3.40;;;27.60;99.90;;;;;;5032501;28;20052;-74
2023/06/24 11:24:52;;;;;;;4.82;3.83;;;27.80;99.90;;;;;;5031207;28;20045;-74
2023/06/24 11:27:30;;;;;;;6.30;3.30;;;28.20;99.90;;;;;;5030989;28;20034;-74
2023/06/24 11:30:01;;;;;;;4.32;3.13;;;28.80;99.90;;;;;;5030861;28;20037;-74
2023/06/24 11:32:38;;;;;;;5.47;3.55;;;29.30;99.90;;;;;;5030738;28;20520;-74
2023/06/24 11:35:17;;;;;;;4.97;3.72;;;29.50;99.80;;;;;;5030860;28;20048;-75
2023/06/24 11:37:44;;;;;;;5.28;3.15;;;29.80;98.90;;;;;;5047640;28;20037;-74
2023/06/24 11:40:11;;;;;;;4.95;3.05;;;29.90;98.30;;;;;;5030836;28;20069;-74
2023/06/24 11:42:40;;;;;;;7.07;3.70;;;29.80;98.40;;;;;;5030312;28;20037;-73
2023/06/24 11:45:09;;;;;;;4.18;3.20;;;29.50;97.30;;;;;;5030258;28;20037;-73
2023/06/24 11:47:36;;;;;;;6.10;3.13;;;29.50;98.10;;;;;;5031860;28;20052;-74
2023/06/24 11:50:05;;;;;;;4.55;3.38;;;29.20;98.20;;;;;;5031997;28;20120;-74
2023/06/24 11:52:40;;;;;;;5.03;3.03;;;28.80;97.90;;;;;;5030113;28;20041;-74
2023/06/24 11:55:26;;;;;;;5.38;3.70;;;28.60;97.90;;;;;;5030620;28;20041;-74
2023/06/24 11:57:58;;;;;;;4.68;3.30;;;28.40;97.70;;;;;;5030141;28;20045;-73
2023/06/24 12:00:26;;;;;;;4.00;3.00;;;28.10;97.50;;;;;;5047072;28;20413;-74
2023/06/24 12:03:00;;;;;;;5.40;3.00;;;27.80;97.70;;;;;;5029016;28;20280;-74
2023/06/24 12:05:28;;;;;;;4.03;3.10;;;27.90;97.70;;;;;;5029400;28;20044;-74
2023/06/24 12:08:11;;;;;;;7.25;3.30;;;28.40;98.20;;;;;;5029776;28;20044;-74
2023/06/24 12:10:38;;;;;;;3.85;3.03;;;28.80;98.30;;;;;;5030575;28;20460;-73
2023/06/24 12:13:05;;;;;;;4.80;2.80;;;29.30;98.00;;;;;;5047064;28;20386;-74
2023/06/24 12:15:32;;;;;;;6.35;3.13;;;29.70;97.40;;;;;;5030319;28;20134;-74
2023/06/24 12:17:58;;;;;;;6.15;2.88;;;29.60;97.10;;;;;;5030585;28;20350;-74
2023/06/24 12:20:25;;;;;;;4.60;3.35;;;29.30;96.70;;;;;;5030128;28;20056;-74
2023/06/24 12:22:50;;;;;;;3.97;2.85;;;29.30;96.50;;;;;;5029931;28;20041;-74
2023/06/24 12:25:17;;;;;;;4.30;2.88;;;29.70;96.60;;;;;;5030066;28;20048;-74
2023/06/24 12:27:43;;;;;;;4.00;3.08;;;29.90;96.40;;;;;;5029983;28;20037;-75
2023/06/24 12:30:10;;;;;;;4.72;3.20;;;30.00;96.10;;;;;;5030197;28;20397;-75
2023/06/24 12:32:36;;;;;;;4.53;3.03;;;30.00;96.10;;;;;;5029999;28;20084;-75
2023/06/24 12:35:03;;;;;;;3.17;2.85;;;30.20;95.80;;;;;;5029941;28;20092;-75
2023/06/24 12:37:31;;;;;;;10.25;3.28;;;30.50;96.00;;;;;;5029705;28;20116;-75
2023/06/24 12:39:57;;;;;;;7.93;3.30;;;30.60;95.50;;;;;;5031210;28;20053;-74
2023/06/24 12:42:22;;;;;;;7.65;3.47;;;30.30;95.00;;;;;;5029601;28;20413;-74